Weather in selectable METAR weather stations

1) Select the Continent / Group:

[Europe]  [Asia]  [Africa]  [North America]  [South America]  
[Central America and Caribbean]  [Oceania]  [Antarctica]  
2) Select the Weather station (City):


METAR = EFHK 291620Z 32009KT 270V360 CAVOK 17/02 Q1024 NOSIG

STATIONEFHK
NAMEHelsinki/Vantaa Arpt, --, FI
OBSERVED29.05.2020 19:20 (29.05.2020 16:20 UTC), 6 min ago
TEMPERATURE17.0°C ( 63°F)
WINDCHILL16.4 °C (62 °F)
WINDNW (320 degrees) at 10 MPH (9 knots; 4.6 m/s)
HUMIDITY36%
PRESSURE1024 hPa
Click here to search the weather station or to give the station identifier
(four-character ICAO Location Indicator) for weather data.